Time;durP1;ratioP1;P1;durP2;ratioP2;P2;SDS_P1;SDS_P2;PMS_P1;PMS_P2;Temp;Humidity;BMP_temperature;BMP_pressure;BME280_temperature;BME280_humidity;BME280_pressure;Samples;Min_cycle;Max_cycle;Signal;HPM_P1;HPM_P2
2023/02/27 00:01:45;;;;;;;0.50;0.50;;;;;;;1.84;89.29;101672.84;5025536;28;20101;-67
2023/02/27 00:04:10;;;;;;;0.60;0.60;;;;;;;1.81;89.33;101683.81;5007688;28;20103;-67
2023/02/27 00:06:35;;;;;;;0.50;0.50;;;;;;;1.83;89.26;101683.91;5025411;28;20026;-67
2023/02/27 00:09:01;;;;;;;0.60;0.60;;;;;;;1.80;89.31;101686.31;5025398;28;20034;-67
2023/02/27 00:11:26;;;;;;;0.52;0.52;;;;;;;1.73;89.31;101688.56;5025593;28;20062;-67
2023/02/27 00:13:52;;;;;;;0.60;0.60;;;;;;;1.75;89.10;101695.44;5025419;28;20488;-67
2023/02/27 00:16:17;;;;;;;0.60;0.60;;;;;;;1.73;89.31;101693.69;5025342;28;20021;-67
2023/02/27 00:18:42;;;;;;;0.50;0.50;;;;;;;1.74;89.58;101699.72;5023768;28;20079;-67
2023/02/27 00:21:08;;;;;;;0.50;0.50;;;;;;;1.67;89.57;101698.53;5040502;28;20032;-67
2023/02/27 00:23:34;;;;;;;0.50;0.50;;;;;;;1.57;89.12;101707.41;5025219;28;20101;-67
2023/02/27 00:25:59;;;;;;;0.50;0.50;;;;;;;1.56;88.95;101705.66;5025122;28;20030;-66
2023/02/27 00:28:26;;;;;;;0.50;0.50;;;;;;;1.54;88.64;101698.69;5025140;28;20018;-67
2023/02/27 00:30:51;;;;;;;0.50;0.50;;;;;;;1.60;88.95;101707.56;5025092;28;20103;-67
2023/02/27 00:33:16;;;;;;;0.60;0.60;;;;;;;1.57;89.17;101703.97;5024930;28;20505;-67
2023/02/27 00:35:42;;;;;;;0.50;0.50;;;;;;;1.61;89.40;101705.91;5025046;28;20026;-68
2023/02/27 00:38:07;;;;;;;0.60;0.60;;;;;;;1.60;89.40;101704.13;5024912;28;20033;-67
2023/02/27 00:40:34;;;;;;;0.50;0.50;;;;;;;1.64;89.80;101710.28;5025026;28;20029;-67
2023/02/27 00:43:01;;;;;;;0.50;0.50;;;;;;;1.62;89.86;101710.19;5025000;28;20042;-70
2023/02/27 00:45:26;;;;;;;0.50;0.50;;;;;;;1.61;89.74;101714.44;5024911;28;20030;-67
2023/02/27 00:47:52;;;;;;;0.52;0.52;;;;;;;1.59;89.55;101710.94;5024952;28;20037;-67
2023/02/27 00:50:17;;;;;;;0.50;0.50;;;;;;;1.56;89.47;101710.78;5024858;28;20026;-67
2023/02/27 00:52:42;;;;;;;0.60;0.60;;;;;;;1.59;89.29;101715.19;5024670;28;20066;-67
2023/02/27 00:55:09;;;;;;;0.52;0.52;;;;;;;1.61;89.15;101714.44;5025147;28;20018;-67
2023/02/27 00:57:34;;;;;;;0.50;0.50;;;;;;;1.64;89.17;101715.41;5024930;28;20046;-67
2023/02/27 01:00:00;;;;;;;0.60;0.60;;;;;;;1.67;89.57;101721.56;5024728;28;20068;-67
2023/02/27 01:02:25;;;;;;;0.50;0.50;;;;;;;1.70;89.82;101720.81;5024732;28;20030;-67
2023/02/27 01:04:51;;;;;;;0.50;0.50;;;;;;;1.67;89.85;101711.31;5024745;28;20026;-67
2023/02/27 01:07:16;;;;;;;0.40;0.40;;;;;;;1.75;90.13;101719.38;5024809;28;20032;-67
2023/02/27 01:09:41;;;;;;;0.50;0.50;;;;;;;1.77;90.30;101719.44;5024809;28;20030;-67
2023/02/27 01:12:07;;;;;;;0.50;0.50;;;;;;;1.72;90.36;101709.88;5023418;28;20022;-67
2023/02/27 01:14:33;;;;;;;0.50;0.50;;;;;;;1.75;90.44;101714.25;5028317;28;20041;-66
2023/02/27 01:16:58;;;;;;;0.50;0.50;;;;;;;1.72;90.39;101717.56;5028614;28;20032;-67
2023/02/27 01:19:24;;;;;;;0.50;0.50;;;;;;;1.76;90.24;101722.81;5028614;28;20497;-67
2023/02/27 01:21:50;;;;;;;0.50;0.50;;;;;;;1.69;90.17;101712.25;5028500;28;20053;-67
2023/02/27 01:24:15;;;;;;;0.60;0.60;;;;;;;1.70;90.23;101724.28;5028299;28;20033;-67
2023/02/27 01:26:41;;;;;;;0.50;0.50;;;;;;;1.69;90.34;101730.16;5028404;28;20038;-66
2023/02/27 01:29:06;;;;;;;0.50;0.50;;;;;;;1.68;90.31;101723.31;5028305;28;20049;-67
2023/02/27 01:31:32;;;;;;;0.50;0.50;;;;;;;1.68;90.41;101712.19;5028195;28;20105;-66
2023/02/27 01:33:58;;;;;;;0.57;0.57;;;;;;;1.68;90.40;101715.63;5043440;28;20548;-66
2023/02/27 01:36:23;;;;;;;0.60;0.60;;;;;;;1.67;90.58;101713.00;5043327;28;20018;-67
2023/02/27 01:38:49;;;;;;;0.52;0.52;;;;;;;1.66;90.35;101706.97;5027961;28;20036;-68
2023/02/27 01:41:14;;;;;;;0.50;0.50;;;;;;;1.68;90.51;101704.50;5028276;28;20117;-66
2023/02/27 01:43:53;;;;;;;0.50;0.50;;;;;;;1.69;90.55;101707.13;5028101;28;20475;-66
2023/02/27 01:46:18;;;;;;;0.50;0.50;;;;;;;1.69;90.60;101701.16;5043204;28;20040;-66
2023/02/27 01:48:44;;;;;;;0.50;0.50;;;;;;;1.66;90.60;101701.84;5043095;28;20022;-66
2023/02/27 01:51:17;;;;;;;0.52;0.52;;;;;;;1.66;90.57;101708.69;5027966;28;20042;-66
2023/02/27 01:53:45;;;;;;;0.50;0.50;;;;;;;1.67;90.57;101706.19;5027817;28;20042;-66
2023/02/27 01:56:22;;;;;;;0.50;0.50;;;;;;;1.69;90.56;101707.13;5028137;28;20025;-67
2023/02/27 01:58:50;;;;;;;0.60;0.60;;;;;;;1.66;90.56;101706.13;5043164;28;20052;-66
2023/02/27 02:01:16;;;;;;;0.50;0.50;;;;;;;1.72;90.67;101712.44;5029685;28;20021;-67
2023/02/27 02:03:48;;;;;;;0.60;0.60;;;;;;;1.68;90.66;101709.63;5030730;28;20344;-66
2023/02/27 02:06:14;;;;;;;0.40;0.40;;;;;;;1.71;90.62;101714.91;5028690;28;20022;-67
2023/02/27 02:08:45;;;;;;;0.50;0.50;;;;;;;1.73;90.54;101713.28;5029543;28;20114;-66
2023/02/27 02:11:13;;;;;;;0.60;0.60;;;;;;;1.66;90.28;101717.22;5030133;28;20041;-66
2023/02/27 02:13:40;;;;;;;0.50;0.50;;;;;;;1.69;90.45;101726.75;5027798;28;20454;-66
2023/02/27 02:16:34;;;;;;;0.60;0.60;;;;;;;1.69;90.63;101737.84;5027641;28;20077;-66
2023/02/27 02:19:18;;;;;;;0.50;0.50;;;;;;;1.68;90.56;101728.44;5027054;28;20041;-66
2023/02/27 02:21:43;;;;;;;0.50;0.50;;;;;;;1.60;90.71;101712.69;5027558;28;20037;-66
2023/02/27 02:24:50;;;;;;;0.50;0.50;;;;;;;1.67;90.89;101731.81;5026437;28;20026;-66
2023/02/27 02:27:36;;;;;;;0.45;0.45;;;;;;;1.65;90.88;101735.06;4985369;28;20046;-66
2023/02/27 02:30:39;;;;;;;0.50;0.50;;;;;;;1.65;90.97;101737.63;4985504;28;20035;-66
2023/02/27 02:33:17;;;;;;;0.50;0.50;;;;;;;1.68;91.03;101743.78;4985374;28;20041;-67
2023/02/27 02:36:00;;;;;;;0.50;0.50;;;;;;;1.71;91.29;101738.81;4985644;28;20022;-66
2023/02/27 02:38:50;;;;;;;0.50;0.50;;;;;;;1.79;91.22;101735.78;4985462;28;20553;-66
2023/02/27 02:41:22;;;;;;;0.52;0.52;;;;;;;1.87;91.37;101737.00;4985574;28;20543;-67
2023/02/27 02:43:47;;;;;;;0.80;0.80;;;;;;;1.92;91.61;101733.00;4985469;28;20034;-67
2023/02/27 02:46:19;;;;;;;0.45;0.45;;;;;;;1.92;91.53;101727.88;4985427;28;20037;-67
2023/02/27 02:48:50;;;;;;;0.40;0.40;;;;;;;1.96;91.30;101723.78;4985132;28;20027;-67
2023/02/27 02:51:38;;;;;;;0.60;0.60;;;;;;;1.92;91.04;101732.09;4985138;28;20042;-69
2023/02/27 02:55:11;;;;;;;0.50;0.50;;;;;;;1.88;90.86;101736.22;4985202;28;20296;-67
2023/02/27 02:57:42;;;;;;;0.50;0.50;;;;;;;1.81;90.24;101727.34;4934879;29;20096;-67
2023/02/27 03:00:19;;;;;;;0.60;0.60;;;;;;;1.81;90.67;101740.16;4946768;29;20054;-67
2023/02/27 03:02:51;;;;;;;0.50;0.50;;;;;;;1.76;90.63;101746.72;4946553;29;20038;-67
2023/02/27 03:05:28;;;;;;;0.60;0.60;;;;;;;1.75;90.51;101742.41;4967150;28;20031;-68
2023/02/27 03:08:01;;;;;;;0.50;0.50;;;;;;;1.77;90.89;101762.97;4985179;28;20026;-68
2023/02/27 03:10:33;;;;;;;0.50;0.50;;;;;;;1.78;90.11;101762.16;4984862;28;20027;-68
2023/02/27 03:13:04;;;;;;;0.88;0.88;;;;;;;1.80;90.84;101756.34;4985048;28;20042;-68
2023/02/27 03:15:37;;;;;;;0.60;0.60;;;;;;;1.85;91.15;101767.66;4984757;28;20031;-68
2023/02/27 03:18:21;;;;;;;0.50;0.50;;;;;;;1.92;91.18;101768.84;4984757;28;20035;-68
2023/02/27 03:20:53;;;;;;;0.50;0.50;;;;;;;1.90;91.05;101759.34;4985047;28;20041;-68
2023/02/27 03:23:25;;;;;;;;;;;;;;;1.96;91.32;101765.66;4985276;28;20037;-69
2023/02/27 03:25:54;;;;;;;0.50;0.50;;;;;;;1.97;91.38;101767.41;4968439;28;19925;-68
2023/02/27 03:28:25;;;;;;;0.50;0.50;;;;;;;1.97;91.50;101769.97;4968511;28;20030;-68
2023/02/27 03:31:12;;;;;;;0.60;0.60;;;;;;;1.98;91.33;101773.41;4976943;28;20153;-68
2023/02/27 03:33:45;;;;;;;0.50;0.50;;;;;;;2.02;91.32;101772.75;5025938;28;20105;-68
2023/02/27 03:36:37;;;;;;;0.50;0.50;;;;;;;2.03;91.28;101769.38;5025645;28;20105;-68
2023/02/27 03:39:18;;;;;;;0.65;0.65;;;;;;;2.04;91.38;101772.84;5041002;28;20025;-67
2023/02/27 03:42:09;;;;;;;0.50;0.50;;;;;;;2.06;91.37;101776.34;5026054;28;20033;-68
2023/02/27 03:44:53;;;;;;;0.50;0.50;;;;;;;2.03;91.06;101768.53;5025848;28;20041;-68
2023/02/27 03:47:19;;;;;;;0.70;0.70;;;;;;;2.07;91.00;101775.53;5025528;28;20030;-68
2023/02/27 03:49:45;;;;;;;0.50;0.50;;;;;;;2.09;91.28;101769.66;5025845;28;20022;-67
2023/02/27 03:52:11;;;;;;;2.42;2.28;;;;;;;2.08;91.01;101767.03;5025528;28;20594;-68
2023/02/27 03:54:42;;;;;;;0.50;0.50;;;;;;;2.14;91.09;101771.59;5025834;28;20036;-68
2023/02/27 03:57:07;;;;;;;0.70;0.70;;;;;;;2.17;91.26;101772.59;5025629;28;20022;-68
2023/02/27 03:59:36;;;;;;;0.50;0.50;;;;;;;2.12;91.45;101758.72;5025441;28;20022;-66
2023/02/27 04:02:02;;;;;;;0.50;0.50;;;;;;;2.23;91.43;101772.03;5025566;28;20030;-67
2023/02/27 04:04:30;;;;;;;0.85;0.85;;;;;;;2.23;91.55;101775.50;5025317;28;20074;-67
2023/02/27 04:07:23;;;;;;;0.50;0.50;;;;;;;2.25;91.50;101782.38;5025361;28;20462;-67
2023/02/27 04:10:03;;;;;;;0.50;0.50;;;;;;;2.27;91.42;101778.19;5025377;28;20072;-66
2023/02/27 04:12:47;;;;;;;0.50;0.50;;;;;;;2.27;91.50;101783.31;5040593;28;20025;-66
2023/02/27 04:15:59;;;;;;;0.50;0.50;;;;;;;2.28;91.51;101791.09;5025237;28;20033;-67
2023/02/27 04:18:30;;;;;;;;;;;;;;;2.29;91.24;101785.16;5025500;28;20033;-68
2023/02/27 04:21:02;;;;;;;0.50;0.50;;;;;;;2.28;91.40;101785.06;5023908;28;19910;-67
2023/02/27 04:23:40;;;;;;;;;;;;;;;2.29;91.08;101795.41;5025693;28;20040;-67
2023/02/27 04:26:08;;;;;;;0.50;0.50;;;;;;;2.26;91.31;101786.69;5025107;28;19919;-67
2023/02/27 04:28:40;;;;;;;0.50;0.50;;;;;;;2.22;90.84;101799.34;5025179;28;20085;-68
2023/02/27 04:31:08;;;;;;;0.60;0.60;;;;;;;2.26;90.95;101796.94;5025246;28;20037;-66
2023/02/27 04:33:55;;;;;;;0.50;0.50;;;;;;;2.27;91.23;101804.69;5024842;28;20392;-66
2023/02/27 04:36:39;;;;;;;0.50;0.50;;;;;;;2.23;91.22;101803.69;5025091;28;20033;-69
2023/02/27 04:39:29;;;;;;;0.60;0.60;;;;;;;2.32;91.44;101812.59;5024993;28;20026;-69
2023/02/27 04:42:10;;;;;;;0.60;0.60;;;;;;;2.33;91.46;101816.94;5020087;28;20048;-68
2023/02/27 04:44:37;;;;;;;0.60;0.60;;;;;;;2.34;91.50;101805.88;5024977;28;20378;-69
2023/02/27 04:47:05;;;;;;;0.50;0.50;;;;;;;2.35;91.46;101811.06;5040168;28;20026;-68
2023/02/27 04:49:36;;;;;;;0.50;0.50;;;;;;;2.36;91.54;101819.66;5028455;28;20038;-68
2023/02/27 04:52:14;;;;;;;0.70;0.70;;;;;;;2.33;91.85;101817.78;5028971;28;20124;-70
2023/02/27 04:54:50;;;;;;;0.50;0.50;;;;;;;2.26;91.45;101810.63;5029132;28;20033;-70
2023/02/27 04:57:25;;;;;;;0.50;0.50;;;;;;;2.22;91.51;101826.66;5029043;28;20029;-70
2023/02/27 04:59:54;;;;;;;0.50;0.50;;;;;;;2.14;91.29;101827.97;5028989;28;20034;-68
2023/02/27 05:02:34;;;;;;;0.50;0.50;;;;;;;2.00;90.62;101827.28;5028983;28;20032;-68
2023/02/27 05:05:07;;;;;;;0.50;0.50;;;;;;;1.97;90.81;101825.44;5028890;28;20045;-68
2023/02/27 05:07:39;;;;;;;0.60;0.60;;;;;;;1.89;90.95;101827.63;5028752;28;20050;-65
2023/02/27 05:10:12;;;;;;;;;;;;;;;1.85;91.06;101835.97;5029468;28;20385;-65
2023/02/27 05:12:47;;;;;;;0.50;0.50;;;;;;;1.70;90.82;101849.72;5028696;28;19915;-65
2023/02/27 05:15:27;;;;;;;0.50;0.50;;;;;;;1.72;90.65;101842.13;5028639;28;20174;-65
2023/02/27 05:18:03;;;;;;;0.43;0.43;;;;;;;1.72;90.75;101848.16;5028548;28;20490;-65
2023/02/27 05:21:00;;;;;;;0.50;0.50;;;;;;;1.66;90.57;101852.91;5028601;28;20022;-64
2023/02/27 05:23:43;;;;;;;0.60;0.60;;;;;;;1.71;90.89;101846.34;5028421;28;20033;-65
2023/02/27 05:26:41;;;;;;;0.50;0.50;;;;;;;1.67;90.73;101849.56;5028410;28;20542;-65
2023/02/27 05:29:18;;;;;;;0.55;0.55;;;;;;;1.61;90.70;101849.25;5024822;28;20042;-74
2023/02/27 05:31:54;;;;;;;5.70;5.15;;;;;;;1.69;91.04;101855.63;5028344;28;20021;-67
2023/02/27 05:34:19;;;;;;;0.50;0.50;;;;;;;1.72;91.29;101849.81;5028135;28;20085;-67
2023/02/27 05:36:58;;;;;;;0.60;0.60;;;;;;;1.79;91.68;101851.00;5027541;28;20022;-68
2023/02/27 05:39:31;;;;;;;0.52;0.52;;;;;;;1.80;92.01;101845.06;5026344;28;20083;-67
2023/02/27 05:42:01;;;;;;;0.50;0.50;;;;;;;1.90;92.05;101843.88;5028251;28;20026;-68
2023/02/27 05:44:41;;;;;;;0.50;0.50;;;;;;;1.93;92.08;101841.47;5028337;28;20050;-68
2023/02/27 05:47:16;;;;;;;0.50;0.50;;;;;;;1.95;92.18;101830.47;5028197;28;20037;-67
2023/02/27 05:49:44;;;;;;;0.50;0.50;;;;;;;1.97;92.25;101828.00;5027732;28;20033;-68
2023/02/27 05:52:15;;;;;;;0.50;0.50;;;;;;;1.94;92.06;101825.28;5042972;28;20053;-67
2023/02/27 05:54:50;;;;;;;0.70;0.70;;;;;;;1.96;92.02;101826.25;5027899;28;20092;-67
2023/02/27 05:57:24;;;;;;;0.50;0.50;;;;;;;1.89;91.89;101822.50;5028107;28;20251;-68
2023/02/27 06:00:02;;;;;;;0.60;0.60;;;;;;;1.84;91.76;101829.06;5027800;28;20026;-70
2023/02/27 06:02:27;;;;;;;0.45;0.45;;;;;;;1.80;91.61;101830.59;5028264;28;20026;-71
2023/02/27 06:04:53;;;;;;;0.50;0.50;;;;;;;1.79;91.72;101833.09;5027842;28;20036;-68
2023/02/27 06:07:19;;;;;;;0.50;0.50;;;;;;;1.76;91.79;101830.38;5028290;28;20022;-69
2023/02/27 06:09:46;;;;;;;0.50;0.50;;;;;;;1.64;91.47;101846.84;5027905;28;20025;-68
2023/02/27 06:12:11;;;;;;;0.50;0.50;;;;;;;1.57;91.42;101830.28;5027781;28;20030;-68
2023/02/27 06:14:37;;;;;;;0.50;0.50;;;;;;;1.54;91.44;101836.94;5043035;28;20051;-69
2023/02/27 06:17:02;;;;;;;0.52;0.52;;;;;;;1.50;91.41;101843.59;5027649;28;20041;-69
2023/02/27 06:19:28;;;;;;;0.50;0.50;;;;;;;1.45;91.45;101848.44;5027471;28;20018;-68
2023/02/27 06:21:53;;;;;;;0.60;0.60;;;;;;;1.43;91.54;101842.38;5027731;28;20077;-68
2023/02/27 06:24:18;;;;;;;0.50;0.50;;;;;;;1.36;91.42;101840.28;5027701;28;20386;-68
2023/02/27 06:26:46;;;;;;;0.60;0.60;;;;;;;1.30;91.14;101847.63;5027529;28;20030;-69
2023/02/27 06:29:11;;;;;;;0.50;0.50;;;;;;;1.23;91.19;101857.53;5027192;28;20026;-68
2023/02/27 06:31:37;;;;;;;0.60;0.60;;;;;;;1.26;91.12;101868.75;5027368;28;20375;-68
2023/02/27 06:34:02;;;;;;;0.50;0.50;;;;;;;1.27;91.49;101852.59;5027195;28;20022;-67
2023/02/27 06:36:28;;;;;;;0.50;0.50;;;;;;;1.25;91.56;101844.84;5027428;28;20370;-68
2023/02/27 06:38:54;;;;;;;0.60;0.60;;;;;;;1.28;91.62;101847.56;5027242;28;20021;-67
2023/02/27 06:41:19;;;;;;;0.60;0.60;;;;;;;1.17;91.27;101854.66;5026996;28;20052;-68
2023/02/27 06:43:45;;;;;;;0.50;0.50;;;;;;;1.23;90.70;101860.09;5027130;28;20026;-68
2023/02/27 06:46:10;;;;;;;0.50;0.50;;;;;;;1.19;90.63;101872.66;5027017;28;20118;-67
2023/02/27 06:48:36;;;;;;;0.50;0.50;;;;;;;1.19;89.96;101880.31;5026179;28;20018;-69
2023/02/27 06:51:02;;;;;;;0.60;0.60;;;;;;;1.18;89.48;101860.66;5027017;28;20022;-68
2023/02/27 06:53:28;;;;;;;0.50;0.50;;;;;;;1.25;89.86;101874.69;5026749;28;20409;-68
2023/02/27 06:55:53;;;;;;;0.60;0.60;;;;;;;1.23;90.40;101883.13;5027009;28;20022;-67
2023/02/27 06:58:19;;;;;;;0.52;0.52;;;;;;;1.22;90.56;101885.59;5026903;28;20022;-67
2023/02/27 07:00:44;;;;;;;8.90;3.33;;;;;;;1.20;90.52;101889.75;5026869;28;20107;-68
2023/02/27 07:03:11;;;;;;;0.50;0.50;;;;;;;1.13;90.81;101883.44;5025268;28;20034;-68
2023/02/27 07:05:36;;;;;;;0.50;0.50;;;;;;;1.21;90.85;101886.41;5025338;28;20030;-68
2023/02/27 07:08:02;;;;;;;0.50;0.50;;;;;;;1.59;91.92;101879.91;5042065;28;20108;-68
2023/02/27 07:10:29;;;;;;;0.50;0.50;;;;;;;2.27;92.13;101886.69;5025963;28;20066;-68
2023/02/27 07:12:54;;;;;;;0.50;0.50;;;;;;;3.08;93.69;101884.53;5026727;28;20116;-67
2023/02/27 07:15:21;;;;;;;0.45;0.45;;;;;;;3.72;92.52;101888.25;5026567;28;20025;-67
2023/02/27 07:17:46;;;;;;;0.50;0.50;;;;;;;4.10;91.46;101887.28;5041626;28;20085;-67
2023/02/27 07:20:12;;;;;;;0.50;0.50;;;;;;;4.33;91.95;101895.94;5026502;28;20064;-68
2023/02/27 07:22:39;;;;;;;0.50;0.50;;;;;;;4.61;92.80;101901.34;5025322;28;20029;-67
2023/02/27 07:25:06;;;;;;;0.40;0.40;;;;;;;5.05;93.20;101908.19;5041427;28;20037;-67
2023/02/27 07:27:31;;;;;;;0.40;0.40;;;;;;;5.55;93.22;101916.06;5026418;28;20116;-68
2023/02/27 07:29:57;;;;;;;0.50;0.50;;;;;;;5.88;92.21;101906.91;5026094;28;20037;-66
2023/02/27 07:32:22;;;;;;;1.25;1.25;;;;;;;6.16;91.63;101902.78;5026239;28;20034;-68
2023/02/27 07:34:48;;;;;;;0.45;0.45;;;;;;;6.17;90.88;101907.09;5026297;28;20083;-68
2023/02/27 07:37:13;;;;;;;0.70;0.70;;;;;;;6.13;88.35;101906.94;5024960;28;20037;-68
2023/02/27 07:39:39;;;;;;;0.50;0.50;;;;;;;5.75;87.72;101907.31;5026220;28;20018;-69
2023/02/27 07:42:04;;;;;;;0.40;0.40;;;;;;;5.66;88.05;101898.44;5026212;28;20462;-67
2023/02/27 07:44:30;;;;;;;0.43;0.43;;;;;;;5.90;90.35;101899.25;5041385;28;20065;-67
2023/02/27 07:46:55;;;;;;;0.50;0.50;;;;;;;6.22;92.23;101893.47;5024962;28;20026;-68
2023/02/27 07:49:21;;;;;;;0.50;0.50;;;;;;;6.60;92.56;101898.16;5025709;28;20045;-67
2023/02/27 07:51:46;;;;;;;0.50;0.50;;;;;;;6.98;93.70;101888.13;5025866;28;20025;-68
2023/02/27 07:54:11;;;;;;;0.47;0.47;;;;;;;7.41;94.50;101885.94;5026062;28;20022;-67
2023/02/27 07:56:38;;;;;;;0.40;0.40;;;;;;;7.76;94.25;101890.38;5025955;28;20049;-67
2023/02/27 07:59:03;;;;;;;0.50;0.50;;;;;;;7.99;93.28;101891.78;5025746;28;20032;-68
2023/02/27 08:01:29;;;;;;;0.40;0.40;;;;;;;8.27;93.40;101875.28;5025809;28;20033;-67
2023/02/27 08:03:55;;;;;;;0.40;0.40;;;;;;;8.57;93.01;101881.19;5024644;28;20026;-68
2023/02/27 08:06:21;;;;;;;0.40;0.40;;;;;;;8.72;92.20;101882.41;5025847;28;20069;-69
2023/02/27 08:08:46;;;;;;;0.40;0.40;;;;;;;8.67;91.33;101880.56;5025708;28;20021;-68
2023/02/27 08:11:11;;;;;;;0.60;0.60;;;;;;;8.36;89.46;101887.56;5026377;28;20121;-67
2023/02/27 08:13:37;;;;;;;0.50;0.50;;;;;;;7.89;88.43;101890.69;5026277;28;20048;-69
2023/02/27 08:16:03;;;;;;;0.40;0.40;;;;;;;7.50;88.56;101887.94;5025661;28;20026;-68
2023/02/27 08:18:29;;;;;;;0.40;0.40;;;;;;;7.89;91.06;101891.56;5025399;28;20037;-67
2023/02/27 08:20:56;;;;;;;0.50;0.50;;;;;;;8.53;90.28;101882.81;5025811;28;20045;-68
2023/02/27 08:23:21;;;;;;;1.17;1.17;;;;;;;9.30;88.62;101889.69;5025501;28;20030;-68
2023/02/27 08:25:46;;;;;;;1.52;1.50;;;;;;;10.20;84.94;101879.25;5025610;28;20021;-68
2023/02/27 08:28:12;;;;;;;0.40;0.40;;;;;;;10.72;80.65;101887.03;5025654;28;20030;-67
2023/02/27 08:30:37;;;;;;;0.40;0.40;;;;;;;11.26;78.18;101891.25;5025297;28;20029;-67
2023/02/27 08:33:03;;;;;;;0.40;0.40;;;;;;;11.81;76.54;101889.22;5025213;28;20041;-68
2023/02/27 08:35:28;;;;;;;1.13;1.13;;;;;;;11.63;74.89;101890.78;5025403;28;20033;-66
2023/02/27 08:37:54;;;;;;;0.40;0.40;;;;;;;11.50;73.91;101900.19;5025193;28;20026;-68
2023/02/27 08:40:19;;;;;;;2.45;1.35;;;;;;;11.28;73.52;101908.59;5025411;28;20028;-67
2023/02/27 08:42:44;;;;;;;0.40;0.40;;;;;;;11.23;71.48;101915.44;5025293;28;20578;-68
2023/02/27 08:45:10;;;;;;;0.40;0.40;;;;;;;11.16;71.26;101924.03;5040451;28;20099;-68
2023/02/27 08:47:36;;;;;;;0.88;0.88;;;;;;;11.18;71.60;101929.25;5025309;28;20029;-68
2023/02/27 08:50:01;;;;;;;0.40;0.40;;;;;;;11.26;70.44;101931.09;5025126;28;20049;-68
2023/02/27 08:52:27;;;;;;;0.40;0.40;;;;;;;11.19;70.12;101936.19;5025050;28;20103;-68
2023/02/27 08:54:52;;;;;;;0.35;0.35;;;;;;;11.28;72.27;101941.50;5025154;28;20041;-67
2023/02/27 08:57:17;;;;;;;0.40;0.40;;;;;;;11.64;71.56;101939.38;5023885;28;20029;-68
2023/02/27 08:59:43;;;;;;;0.35;0.35;;;;;;;11.89;72.29;101955.25;5023869;28;20029;-67
2023/02/27 09:02:09;;;;;;;0.40;0.40;;;;;;;12.47;74.20;101950.63;5025029;28;20029;-67
2023/02/27 09:04:35;;;;;;;0.40;0.40;;;;;;;12.95;71.54;101947.50;5024845;28;20026;-67
2023/02/27 09:07:00;;;;;;;0.40;0.40;;;;;;;12.98;71.77;101957.97;5025193;28;20092;-66
2023/02/27 09:09:26;;;;;;;0.40;0.40;;;;;;;13.42;69.63;101958.22;5024943;28;20029;-67
2023/02/27 09:11:52;;;;;;;0.40;0.40;;;;;;;13.53;71.95;101964.34;5025108;28;20021;-66
2023/02/27 09:14:18;;;;;;;0.50;0.50;;;;;;;13.95;73.16;101972.34;5025083;28;20033;-66
2023/02/27 09:16:44;;;;;;;0.30;0.30;;;;;;;14.10;69.61;101974.13;5025008;28;20022;-66
2023/02/27 09:19:10;;;;;;;0.30;0.30;;;;;;;13.91;69.37;101970.59;5023403;28;20057;-66
2023/02/27 09:21:36;;;;;;;0.30;0.30;;;;;;;13.79;71.29;101970.53;5024874;28;20030;-66
2023/02/27 09:24:03;;;;;;;0.70;0.70;;;;;;;14.11;72.06;101983.69;5025070;28;20026;-67
2023/02/27 09:26:29;;;;;;;0.30;0.30;;;;;;;14.65;71.93;101978.53;5024926;28;20022;-66
2023/02/27 09:28:54;;;;;;;0.22;0.22;;;;;;;15.06;72.20;101990.72;5024790;28;20119;-65
2023/02/27 09:31:19;;;;;;;0.38;0.38;;;;;;;15.19;71.08;101993.31;5024242;28;20034;-67
2023/02/27 09:33:45;;;;;;;0.30;0.30;;;;;;;15.09;70.68;101985.50;5025073;28;20029;-67
2023/02/27 09:36:10;;;;;;;1.88;1.60;;;;;;;15.29;71.67;101989.78;5028306;28;20026;-67
2023/02/27 09:38:37;;;;;;;0.30;0.30;;;;;;;15.33;69.99;101988.91;5028199;28;20033;-66
2023/02/27 09:41:05;;;;;;;0.30;0.30;;;;;;;14.73;68.32;101988.09;5028265;28;20134;-66
2023/02/27 09:43:39;;;;;;;0.35;0.35;;;;;;;14.44;69.96;101994.19;5026757;28;20032;-66
2023/02/27 09:46:06;;;;;;;0.30;0.30;;;;;;;14.70;71.84;101993.31;5027984;28;20026;-65
2023/02/27 09:48:31;;;;;;;0.30;0.30;;;;;;;15.16;71.70;102002.00;5027951;28;20026;-66
2023/02/27 09:50:58;;;;;;;0.32;0.32;;;;;;;15.12;68.04;102005.53;5028135;28;20517;-66
2023/02/27 09:53:30;;;;;;;0.30;0.30;;;;;;;15.31;65.27;102013.31;5027770;28;20091;-66
2023/02/27 09:56:05;;;;;;;0.40;0.40;;;;;;;15.26;66.60;102017.69;5028033;28;20026;-66
2023/02/27 09:59:07;;;;;;;0.28;0.28;;;;;;;15.19;64.97;102020.31;5028061;28;20093;-67
2023/02/27 10:01:39;;;;;;;0.82;0.82;;;;;;;13.87;66.68;102021.94;5027954;28;20466;-66
2023/02/27 10:04:25;;;;;;;0.43;0.43;;;;;;;13.12;68.37;102018.88;5027774;28;20441;-69
2023/02/27 10:07:06;;;;;;;0.30;0.30;;;;;;;12.82;71.03;102025.63;5028374;28;20056;-66
2023/02/27 10:09:37;;;;;;;0.40;0.40;;;;;;;13.61;71.94;102020.06;5027936;28;20029;-67
2023/02/27 10:12:05;;;;;;;0.45;0.45;;;;;;;14.35;67.23;102034.25;5027846;28;20022;-67
2023/02/27 10:14:49;;;;;;;0.32;0.32;;;;;;;15.56;63.76;102026.34;5027634;28;20033;-67
2023/02/27 10:17:33;;;;;;;0.50;0.50;;;;;;;16.89;63.28;102026.44;5027422;28;20080;-67
2023/02/27 10:20:01;;;;;;;1.15;1.15;;;;;;;17.87;59.12;102031.53;5027781;28;20018;-68
2023/02/27 10:22:32;;;;;;;0.20;0.20;;;;;;;18.59;59.17;102026.16;5027791;28;20033;-67
2023/02/27 10:25:06;;;;;;;0.20;0.20;;;;;;;18.20;60.66;102029.38;5027666;28;20022;-68
2023/02/27 10:27:32;;;;;;;0.25;0.25;;;;;;;17.29;61.49;102032.19;5027630;28;20038;-67
2023/02/27 10:30:16;;;;;;;0.50;0.50;;;;;;;16.59;63.42;102031.94;5027693;28;20017;-67
2023/02/27 10:32:43;;;;;;;0.30;0.30;;;;;;;15.71;63.45;102030.66;5027641;28;20029;-68
2023/02/27 10:35:29;;;;;;;0.35;0.35;;;;;;;15.32;64.28;102034.25;5027301;28;20022;-67
2023/02/27 10:37:59;;;;;;;0.40;0.40;;;;;;;15.11;60.97;102035.19;5028789;28;20089;-68
2023/02/27 10:40:26;;;;;;;0.30;0.30;;;;;;;15.26;63.25;102036.00;5029527;28;20030;-69
2023/02/27 10:42:53;;;;;;;0.30;0.30;;;;;;;15.31;65.27;102043.00;5027680;28;20033;-69
2023/02/27 10:45:19;;;;;;;0.30;0.30;;;;;;;15.83;65.04;102037.59;5026543;28;20180;-69
2023/02/27 10:47:45;;;;;;;0.30;0.30;;;;;;;16.50;64.84;102034.63;5028409;28;20026;-68
2023/02/27 10:50:26;;;;;;;0.30;0.30;;;;;;;16.96;62.67;102035.13;5027826;28;20025;-66
2023/02/27 10:52:59;;;;;;;0.40;0.40;;;;;;;17.01;61.00;102032.47;5028104;28;20045;-68
2023/02/27 10:55:30;;;;;;;0.30;0.30;;;;;;;17.63;64.28;102037.09;5028322;28;20061;-69
2023/02/27 10:57:58;;;;;;;0.30;0.30;;;;;;;18.30;64.38;102028.34;5027459;28;20037;-65
2023/02/27 11:00:48;;;;;;;0.30;0.30;;;;;;;18.72;62.35;102026.81;5027025;28;20030;-67
2023/02/27 11:03:23;;;;;;;0.68;0.68;;;;;;;18.75;62.27;102023.25;5019679;28;20105;-68
2023/02/27 11:05:58;;;;;;;0.20;0.20;;;;;;;19.03;63.41;102025.41;5026934;28;20101;-66
2023/02/27 11:08:26;;;;;;;0.20;0.20;;;;;;;19.50;64.97;102024.56;5027032;28;20053;-68
2023/02/27 11:11:12;;;;;;;0.20;0.20;;;;;;;20.23;61.51;102027.41;5026872;28;20021;-67
2023/02/27 11:13:39;;;;;;;0.45;0.45;;;;;;;20.45;60.15;102019.84;5026553;28;20109;-67
2023/02/27 11:16:12;;;;;;;0.20;0.20;;;;;;;20.15;57.17;102030.22;5026843;28;20053;-67
2023/02/27 11:18:40;;;;;;;0.40;0.40;;;;;;;19.80;55.15;102027.44;5026510;28;20026;-68
2023/02/27 11:21:19;;;;;;;0.30;0.30;;;;;;;19.24;55.54;102028.56;5026317;28;20022;-67
2023/02/27 11:24:17;;;;;;;0.30;0.30;;;;;;;19.30;57.93;102024.03;5024905;28;20023;-67
2023/02/27 11:26:55;;;;;;;0.20;0.20;;;;;;;19.38;51.30;102025.66;5016292;28;20038;-67
2023/02/27 11:29:21;;;;;;;0.30;0.30;;;;;;;19.98;58.87;102022.69;5025622;28;20022;-67
2023/02/27 11:31:56;;;;;;;0.28;0.28;;;;;;;19.55;56.79;102023.53;5025172;28;20018;-69
2023/02/27 11:34:30;;;;;;;0.20;0.20;;;;;;;18.21;58.17;102036.38;5024670;28;20072;-67
2023/02/27 11:37:04;;;;;;;0.30;0.30;;;;;;;16.46;54.90;102025.03;5025425;28;20033;-68
2023/02/27 11:39:36;;;;;;;0.30;0.30;;;;;;;15.70;62.34;102029.78;5025341;28;20085;-67
2023/02/27 11:42:29;;;;;;;0.30;0.30;;;;;;;15.01;64.48;102022.97;5026049;28;20026;-68
2023/02/27 11:45:00;;;;;;;0.30;0.30;;;;;;;14.28;67.09;102029.84;5021685;28;20048;-68
2023/02/27 11:47:37;;;;;;;0.20;0.20;;;;;;;13.70;68.27;102036.63;5026063;28;20022;-68
2023/02/27 11:50:37;;;;;;;0.30;0.30;;;;;;;13.47;68.26;102039.97;5025675;28;20029;-67